createdAt,value
2018-04-01T00:00:06.006Z,98.86
2018-04-01T00:01:15.966Z,98.96
2018-04-01T00:02:25.660Z,98.58
2018-04-01T00:03:35.116Z,98.58
2018-04-01T00:04:45.083Z,98.58
2018-04-01T00:05:54.782Z,98.67
2018-04-01T00:07:04.483Z,99.05
2018-04-01T00:08:14.446Z,99.62
2018-04-01T00:09:24.400Z,99.52
2018-04-01T00:10:34.101Z,98.96
2018-04-01T00:11:43.536Z,98.77
2018-04-01T00:12:53.226Z,98.77
2018-04-01T00:14:02.928Z,98.77
2018-04-01T00:15:12.633Z,99.43
2018-04-01T00:16:22.210Z,98.77
2018-04-01T00:17:32.179Z,99.52
2018-04-01T00:18:42.149Z,99.05
2018-04-01T00:19:51.845Z,98.58
2018-04-01T00:21:01.797Z,98.96
2018-04-01T00:22:12.058Z,98.58
2018-04-01T00:23:22.020Z,98.67
2018-04-01T00:24:31.769Z,98.67
2018-04-01T00:25:41.485Z,98.67
2018-04-01T00:26:51.449Z,98.67
2018-04-01T00:28:01.415Z,98.77
2018-04-01T00:29:11.365Z,98.39
2018-04-01T00:30:21.068Z,98.77
2018-04-01T00:31:30.259Z,98.77
2018-04-01T00:32:40.215Z,98.58
2018-04-01T00:33:50.163Z,98.77
2018-04-01T00:35:00.137Z,99.62
2018-04-01T00:36:09.319Z,99.15
2018-04-01T00:37:19.049Z,99.9
2018-04-01T00:38:29.011Z,99.62
2018-04-01T00:39:38.707Z,99.33
2018-04-01T00:40:48.680Z,99.99
2018-04-01T00:41:58.378Z,99.99
2018-04-01T00:43:08.088Z,99.99
2018-04-01T00:44:17.789Z,99.99
2018-04-01T00:45:27.735Z,99.99
2018-04-01T00:46:37.715Z,99.99
2018-04-01T00:47:47.827Z,99.99
2018-04-01T00:48:57.248Z,99.99
2018-04-01T00:50:06.690Z,99.99
2018-04-01T00:51:16.638Z,99.99
2018-04-01T00:52:26.588Z,99.99
2018-04-01T00:53:36.551Z,99.99
2018-04-01T00:54:46.246Z,99.99
2018-04-01T00:55:56.212Z,99.99
2018-04-01T00:57:05.911Z,99.99
2018-04-01T00:58:15.615Z,99.99
2018-04-01T00:59:25.576Z,99.99
2018-04-01T01:00:35.529Z,99.99
2018-04-01T01:01:45.484Z,99.99
2018-04-01T01:02:55.450Z,99.99
2018-04-01T01:04:05.448Z,99.99
2018-04-01T01:05:15.402Z,99.99
2018-04-01T01:06:25.376Z,99.99
2018-04-01T01:07:35.077Z,99.99
2018-04-01T01:08:45.034Z,99.99
2018-04-01T01:09:54.476Z,99.99
2018-04-01T01:11:04.179Z,99.99
2018-04-01T01:12:14.137Z,99.99
2018-04-01T01:13:23.834Z,99.99
2018-04-01T01:14:33.522Z,99.99
2018-04-01T01:15:43.478Z,99.99
2018-04-01T01:16:53.431Z,99.99
2018-04-01T01:18:02.757Z,99.99
2018-04-01T01:19:12.489Z,99.99
2018-04-01T01:20:22.441Z,99.99
2018-04-01T01:21:32.417Z,99.99
2018-04-01T01:22:42.111Z,99.99
2018-04-01T01:23:52.078Z,99.99
2018-04-01T01:25:02.030Z,99.99
2018-04-01T01:26:11.721Z,99.99
2018-04-01T01:27:21.165Z,99.99
2018-04-01T01:28:30.879Z,99.99
2018-04-01T01:29:40.861Z,99.99
2018-04-01T01:30:50.561Z,99.99
2018-04-01T01:32:00.522Z,99.99
2018-04-01T01:33:10.490Z,99.99
2018-04-01T01:34:20.442Z,99.99
2018-04-01T01:35:30.435Z,99.99
2018-04-01T01:36:40.128Z,99.99
2018-04-01T01:37:50.086Z,99.99
2018-04-01T01:39:00.148Z,99.99
2018-04-01T01:40:09.850Z,99.99
2018-04-01T01:41:19.553Z,99.99
2018-04-01T01:42:29.506Z,99.99
2018-04-01T01:43:39.466Z,99.99
2018-04-01T01:44:49.440Z,99.99
2018-04-01T01:45:59.392Z,99.99
2018-04-01T01:47:09.345Z,99.99
2018-04-01T01:48:19.055Z,99.99
2018-04-01T01:49:29.020Z,99.99
2018-04-01T01:50:38.980Z,99.99
2018-04-01T01:51:48.955Z,99.99
2018-04-01T01:52:58.657Z,99.99
2018-04-01T01:54:08.363Z,99.99
2018-04-01T01:55:18.329Z,99.99
2018-04-01T01:56:27.776Z,99.99
2018-04-01T01:57:37.739Z,99.99
2018-04-01T01:58:47.712Z,99.99
2018-04-01T01:59:57.155Z,99.99
2018-04-01T02:01:06.353Z,99.99
2018-04-01T02:02:16.323Z,99.99
2018-04-01T02:03:26.285Z,99.99
2018-04-01T02:04:36.245Z,99.99
2018-04-01T02:05:46.197Z,99.99
2018-04-01T02:06:55.905Z,99.99
2018-04-01T02:08:05.877Z,99.99
2018-04-01T02:09:15.573Z,99.99
2018-04-01T02:10:25.274Z,99.99
2018-04-01T02:11:35.287Z,99.99
2018-04-01T02:12:44.730Z,99.99
2018-04-01T02:13:54.435Z,99.99
2018-04-01T02:15:04.133Z,99.99
2018-04-01T02:16:14.098Z,99.99
2018-04-01T02:17:24.057Z,99.99
2018-04-01T02:18:34.013Z,99.99
2018-04-01T02:19:43.703Z,99.99
2018-04-01T02:20:53.142Z,99.99
2018-04-01T02:22:02.588Z,99.99
2018-04-01T02:23:12.283Z,99.99
2018-04-01T02:24:21.980Z,99.99
2018-04-01T02:25:31.186Z,99.99
2018-04-01T02:26:40.890Z,99.99
2018-04-01T02:27:50.854Z,99.99
2018-04-01T02:29:00.818Z,99.99
2018-04-01T02:30:10.263Z,99.99
2018-04-01T02:31:19.989Z,99.99
2018-04-01T02:32:30.339Z,99.99
2018-04-01T02:33:39.787Z,99.99
2018-04-01T02:34:49.503Z,99.99
2018-04-01T02:35:59.481Z,99.99
2018-04-01T02:37:10.083Z,99.99
2018-04-01T02:38:20.074Z,99.99
2018-04-01T02:39:29.826Z,99.99
2018-04-01T02:40:39.008Z,99.99
2018-04-01T02:41:48.707Z,99.99
2018-04-01T02:42:58.165Z,99.99
2018-04-01T02:44:07.878Z,99.99
2018-04-01T02:45:17.323Z,99.99
2018-04-01T02:46:27.030Z,99.99
2018-04-01T02:47:37.000Z,99.99
2018-04-01T02:48:46.448Z,99.99
2018-04-01T02:49:56.156Z,99.99
2018-04-01T02:51:05.882Z,99.99
2018-04-01T02:52:15.863Z,99.99
2018-04-01T02:53:25.828Z,99.99
2018-04-01T02:54:35.793Z,99.99
2018-04-01T02:55:45.244Z,99.99
2018-04-01T02:56:55.216Z,99.99
2018-04-01T02:58:04.662Z,99.99
2018-04-01T02:59:14.106Z,99.99
2018-04-01T03:00:23.827Z,99.99
2018-04-01T03:01:33.524Z,99.99
2018-04-01T03:02:43.223Z,99.99
2018-04-01T03:03:53.187Z,99.99
2018-04-01T03:05:03.166Z,99.99
2018-04-01T03:06:12.622Z,99.99
2018-04-01T03:07:22.601Z,99.99
2018-04-01T03:08:32.313Z,99.99
2018-04-01T03:09:42.286Z,99.99
2018-04-01T03:10:51.997Z,99.99
2018-04-01T03:12:01.961Z,99.99
2018-04-01T03:13:12.167Z,99.99
2018-04-01T03:14:21.865Z,99.99
2018-04-01T03:15:31.037Z,99.99
2018-04-01T03:16:40.474Z,99.99
2018-04-01T03:17:50.172Z,99.99
2018-04-01T03:18:59.873Z,99.99
2018-04-01T03:20:09.303Z,99.99
2018-04-01T03:21:19.000Z,99.99
2018-04-01T03:22:28.701Z,99.99
2018-04-01T03:23:38.393Z,99.99
2018-04-01T03:24:48.345Z,99.99
2018-04-01T03:25:58.040Z,99.99
2018-04-01T03:27:07.772Z,99.99
2018-04-01T03:28:17.752Z,99.99
2018-04-01T03:29:27.455Z,99.99
2018-04-01T03:30:37.420Z,99.99
2018-04-01T03:31:47.399Z,99.99
2018-04-01T03:32:56.833Z,99.99
2018-04-01T03:34:06.521Z,99.99
2018-04-01T03:35:16.216Z,99.99
2018-04-01T03:36:25.659Z,99.99
2018-04-01T03:37:35.358Z,99.99
2018-04-01T03:38:45.069Z,99.99
2018-04-01T03:39:55.046Z,99.99
2018-04-01T03:41:04.766Z,99.99
2018-04-01T03:42:14.476Z,99.99
2018-04-01T03:43:24.220Z,99.99
2018-04-01T03:44:33.929Z,99.99
2018-04-01T03:45:43.627Z,99.99
2018-04-01T03:46:53.322Z,99.99
2018-04-01T03:48:03.281Z,99.99
2018-04-01T03:49:12.458Z,99.99
2018-04-01T03:50:22.165Z,99.99
2018-04-01T03:51:31.858Z,99.99
2018-04-01T03:52:41.041Z,99.99
2018-04-01T03:53:50.736Z,99.99
2018-04-01T03:55:00.197Z,99.99
2018-04-01T03:56:10.151Z,99.99
2018-04-01T03:57:19.847Z,99.99
2018-04-01T03:58:29.820Z,99.99
2018-04-01T03:59:39.513Z,99.99
2018-04-01T04:00:49.209Z,99.99
2018-04-01T04:01:58.653Z,99.99
2018-04-01T04:03:08.084Z,99.99
2018-04-01T04:04:18.045Z,99.99
2018-04-01T04:05:28.005Z,99.99
2018-04-01T04:06:37.966Z,99.99
2018-04-01T04:07:47.401Z,99.99
2018-04-01T04:08:57.108Z,99.99
2018-04-01T04:10:06.548Z,99.99
2018-04-01T04:11:16.517Z,99.99
2018-04-01T04:12:26.206Z,99.99
2018-04-01T04:13:36.156Z,99.99
2018-04-01T04:14:45.871Z,99.99
2018-04-01T04:15:55.830Z,99.99
2018-04-01T04:17:05.794Z,99.99
2018-04-01T04:18:15.242Z,99.99
2018-04-01T04:19:24.672Z,99.99
2018-04-01T04:20:34.367Z,99.99
2018-04-01T04:21:44.077Z,99.99
2018-04-01T04:22:53.793Z,99.99
2018-04-01T04:24:02.975Z,99.99
2018-04-01T04:25:12.685Z,99.99
2018-04-01T04:26:22.692Z,99.99
2018-04-01T04:27:32.384Z,99.99
2018-04-01T04:28:42.093Z,99.99
2018-04-01T04:29:52.046Z,99.99
2018-04-01T04:31:01.736Z,99.99
2018-04-01T04:32:11.698Z,99.99
2018-04-01T04:33:21.401Z,99.99
2018-04-01T04:34:31.355Z,99.99
2018-04-01T04:35:41.330Z,99.99
2018-04-01T04:36:51.301Z,99.99
2018-04-01T04:38:01.157Z,99.99
2018-04-01T04:39:10.861Z,99.99
2018-04-01T04:40:20.564Z,99.99
2018-04-01T04:41:30.262Z,99.99
2018-04-01T04:42:40.219Z,99.99
2018-04-01T04:43:49.912Z,99.99
2018-04-01T04:44:59.350Z,99.99
2018-04-01T04:46:09.311Z,99.99
2018-04-01T04:47:19.001Z,99.99
2018-04-01T04:48:28.433Z,99.99
2018-04-01T04:49:37.867Z,99.99
2018-04-01T04:50:47.822Z,99.99
2018-04-01T04:51:57.513Z,99.99
2018-04-01T04:53:07.220Z,99.99
2018-04-01T04:54:16.909Z,99.99
2018-04-01T04:55:26.346Z,99.99
2018-04-01T04:56:36.041Z,99.99
2018-04-01T04:57:45.773Z,99.99
2018-04-01T04:58:55.734Z,99.99
2018-04-01T05:00:05.696Z,99.99
2018-04-01T05:01:15.662Z,99.99
2018-04-01T05:02:25.867Z,99.99
2018-04-01T05:03:35.301Z,99.99
2018-04-01T05:04:45.014Z,99.99
2018-04-01T05:05:54.711Z,99.99
2018-04-01T05:07:04.415Z,99.99
2018-04-01T05:08:14.121Z,99.99
2018-04-01T05:09:24.122Z,99.99
2018-04-01T05:10:33.306Z,99.99
2018-04-01T05:11:43.004Z,99.99
2018-04-01T05:12:52.967Z,99.99
2018-04-01T05:14:02.679Z,99.99
2018-04-01T05:15:12.370Z,99.99
2018-04-01T05:16:22.330Z,99.99
2018-04-01T05:17:32.029Z,99.99
2018-04-01T05:18:41.732Z,99.99
2018-04-01T05:19:51.633Z,99.99
2018-04-01T05:21:01.589Z,99.99
2018-04-01T05:22:11.560Z,99.99
2018-04-01T05:23:21.540Z,99.99
2018-04-01T05:24:31.504Z,99.99
2018-04-01T05:25:41.199Z,99.99
2018-04-01T05:26:50.631Z,99.99
2018-04-01T05:28:00.067Z,99.99
2018-04-01T05:29:09.245Z,99.99
2018-04-01T05:30:18.930Z,99.99
2018-04-01T05:31:28.368Z,99.99
2018-04-01T05:32:38.067Z,99.99
2018-04-01T05:33:47.760Z,99.99
2018-04-01T05:34:57.707Z,99.99
2018-04-01T05:36:07.400Z,99.99
2018-04-01T05:37:17.360Z,99.99
2018-04-01T05:38:26.792Z,99.99
2018-04-01T05:39:36.234Z,99.99
2018-04-01T05:40:45.932Z,99.99
2018-04-01T05:41:55.912Z,99.99
2018-04-01T05:43:05.878Z,99.99
2018-04-01T05:44:15.904Z,99.99
2018-04-01T05:45:25.865Z,99.99
2018-04-01T05:46:35.838Z,99.99
2018-04-01T05:47:45.793Z,99.99
2018-04-01T05:48:55.501Z,99.99
2018-04-01T05:50:05.446Z,99.99
2018-04-01T05:51:15.149Z,99.99
2018-04-01T05:52:24.857Z,99.99
2018-04-01T05:53:34.567Z,99.99
2018-04-01T05:54:44.267Z,99.99
2018-04-01T05:55:54.231Z,99.99
2018-04-01T05:57:03.680Z,99.99
2018-04-01T05:58:13.377Z,99.99
2018-04-01T05:59:22.829Z,99.99
2018-04-01T06:00:32.782Z,99.99
2018-04-01T06:01:42.218Z,99.99
2018-04-01T06:02:51.668Z,99.99
2018-04-01T06:04:01.617Z,99.99
2018-04-01T06:05:11.053Z,99.99
2018-04-01T06:06:20.757Z,99.99
2018-04-01T06:07:30.193Z,99.99
2018-04-01T06:08:40.152Z,99.99
2018-04-01T06:09:50.105Z,99.99
2018-04-01T06:10:59.799Z,99.99
2018-04-01T06:12:09.778Z,99.99
2018-04-01T06:13:19.876Z,99.99
2018-04-01T06:14:29.564Z,99.99
2018-04-01T06:15:39.525Z,99.99
2018-04-01T06:16:49.217Z,99.99
2018-04-01T06:17:58.666Z,99.99
2018-04-01T06:19:08.367Z,99.99
2018-04-01T06:20:18.066Z,99.99
2018-04-01T06:21:27.251Z,99.99
2018-04-01T06:22:37.217Z,99.99
2018-04-01T06:23:47.172Z,99.99
2018-04-01T06:24:56.864Z,99.99
2018-04-01T06:26:06.562Z,99.99
2018-04-01T06:27:16.532Z,99.99
2018-04-01T06:28:26.226Z,99.99
2018-04-01T06:29:35.407Z,99.99
2018-04-01T06:30:45.360Z,99.99
2018-04-01T06:31:55.314Z,99.99
2018-04-01T06:33:05.010Z,99.99
2018-04-01T06:34:14.967Z,99.99
2018-04-01T06:35:24.932Z,99.99
2018-04-01T06:36:34.664Z,99.99
2018-04-01T06:37:44.623Z,99.99
2018-04-01T06:38:54.585Z,99.99
2018-04-01T06:40:04.432Z,99.99
2018-04-01T06:41:14.368Z,99.99
2018-04-01T06:42:23.811Z,99.99
2018-04-01T06:43:33.761Z,99.99
2018-04-01T06:44:43.724Z,99.99
2018-04-01T06:45:53.427Z,99.99
2018-04-01T06:47:03.127Z,99.99
2018-04-01T06:48:12.823Z,99.99
2018-04-01T06:49:22.784Z,99.99
2018-04-01T06:50:32.483Z,99.99
2018-04-01T06:51:41.917Z,99.99
2018-04-01T06:52:51.355Z,99.99
2018-04-01T06:54:01.321Z,99.99
2018-04-01T06:55:10.769Z,99.99
2018-04-01T06:56:20.735Z,99.99
2018-04-01T06:57:30.178Z,99.99
2018-04-01T06:58:39.616Z,99.99
2018-04-01T06:59:49.322Z,99.99
2018-04-01T07:00:59.271Z,99.99
2018-04-01T07:02:09.346Z,99.99
2018-04-01T07:03:19.313Z,99.99
2018-04-01T07:04:29.013Z,99.99
2018-04-01T07:05:38.465Z,99.99
2018-04-01T07:06:47.902Z,99.99
2018-04-01T07:07:57.855Z,99.99
2018-04-01T07:09:07.545Z,99.99
2018-04-01T07:10:16.992Z,99.99
2018-04-01T07:11:26.709Z,99.99
2018-04-01T07:12:36.420Z,99.99
2018-04-01T07:13:46.124Z,99.99
2018-04-01T07:14:55.572Z,99.99
2018-04-01T07:16:05.533Z,99.99
2018-04-01T07:17:14.979Z,99.99
2018-04-01T07:18:24.949Z,99.99
2018-04-01T07:19:34.404Z,99.99
2018-04-01T07:20:43.865Z,99.99
2018-04-01T07:21:53.303Z,99.99
2018-04-01T07:23:02.778Z,99.99
2018-04-01T07:24:12.738Z,99.99
2018-04-01T07:25:22.703Z,99.99
2018-04-01T07:26:32.407Z,99.99
2018-04-01T07:27:42.389Z,99.99
2018-04-01T07:28:52.364Z,99.99
2018-04-01T07:30:02.333Z,99.99
2018-04-01T07:31:12.038Z,99.99
2018-04-01T07:32:21.743Z,99.99
2018-04-01T07:33:31.721Z,99.99
2018-04-01T07:34:41.701Z,99.99
2018-04-01T07:35:51.659Z,99.99
2018-04-01T07:37:01.613Z,99.99
2018-04-01T07:38:11.566Z,99.99
2018-04-01T07:39:21.278Z,99.99
2018-04-01T07:40:31.238Z,99.99
2018-04-01T07:41:41.199Z,99.99
2018-04-01T07:42:50.897Z,99.99
2018-04-01T07:44:00.917Z,99.99
2018-04-01T07:45:10.907Z,99.99
2018-04-01T07:46:20.882Z,99.99
2018-04-01T07:47:30.590Z,99.99
2018-04-01T07:48:40.572Z,99.99
2018-04-01T07:49:50.011Z,99.99
2018-04-01T07:50:59.715Z,99.99
2018-04-01T07:52:09.725Z,99.99
2018-04-01T07:53:19.675Z,99.99
2018-04-01T07:54:29.657Z,99.99
2018-04-01T07:55:39.108Z,99.99
2018-04-01T07:56:49.070Z,99.99
2018-04-01T07:57:58.792Z,99.99
2018-04-01T07:59:08.495Z,99.99
2018-04-01T08:00:18.448Z,99.99
2018-04-01T08:01:28.139Z,99.99
2018-04-01T08:02:37.837Z,99.99
2018-04-01T08:03:47.542Z,99.99
2018-04-01T08:04:56.976Z,99.99
2018-04-01T08:06:06.688Z,99.99
2018-04-01T08:07:16.395Z,99.99
2018-04-01T08:08:25.830Z,99.99
2018-04-01T08:09:35.847Z,99.99
2018-04-01T08:10:45.280Z,99.99
2018-04-01T08:11:55.238Z,99.99
2018-04-01T08:13:05.192Z,99.99
2018-04-01T08:14:14.901Z,99.99
2018-04-01T08:15:24.863Z,99.99
2018-04-01T08:16:34.885Z,99.99
2018-04-01T08:17:44.336Z,99.99
2018-04-01T08:18:54.049Z,99.99
2018-04-01T08:20:04.074Z,99.99
2018-04-01T08:21:13.527Z,99.99
2018-04-01T08:22:23.483Z,99.99
2018-04-01T08:23:33.198Z,99.99
2018-04-01T08:24:43.162Z,99.99
2018-04-01T08:25:53.116Z,99.99
2018-04-01T08:27:03.075Z,99.99
2018-04-01T08:28:12.830Z,99.99
2018-04-01T08:29:22.849Z,99.99
2018-04-01T08:30:32.810Z,99.99
2018-04-01T08:31:42.784Z,99.99
2018-04-01T08:32:52.477Z,99.99
2018-04-01T08:34:01.920Z,99.99
2018-04-01T08:35:11.630Z,99.99
2018-04-01T08:36:21.330Z,99.99
2018-04-01T08:37:31.029Z,99.99
2018-04-01T08:38:40.748Z,99.99
2018-04-01T08:39:50.700Z,99.99
2018-04-01T08:41:00.401Z,99.99
2018-04-01T08:42:10.104Z,99.99
2018-04-01T08:43:19.549Z,99.99
2018-04-01T08:44:29.509Z,99.99
2018-04-01T08:45:39.205Z,99.99
2018-04-01T08:46:48.904Z,99.99
2018-04-01T08:47:59.368Z,99.99
2018-04-01T08:49:08.844Z,99.99
2018-04-01T08:50:18.351Z,99.99
2018-04-01T08:51:28.318Z,99.99
2018-04-01T08:52:38.032Z,99.99
2018-04-01T08:53:47.481Z,99.99
2018-04-01T08:54:57.196Z,99.99
2018-04-01T08:56:06.894Z,99.99
2018-04-01T08:57:16.853Z,99.99
2018-04-01T08:58:26.552Z,99.99
2018-04-01T08:59:36.640Z,99.99
2018-04-01T09:00:46.623Z,99.99
2018-04-01T09:01:56.322Z,99.99
2018-04-01T09:03:06.026Z,99.99
2018-04-01T09:04:15.735Z,99.99
2018-04-01T09:05:25.686Z,99.99
2018-04-01T09:06:35.424Z,99.99
2018-04-01T09:07:44.854Z,99.99
2018-04-01T09:08:54.801Z,99.99
2018-04-01T09:10:04.505Z,99.99
2018-04-01T09:11:14.489Z,99.99
2018-04-01T09:12:24.189Z,99.99
2018-04-01T09:13:34.143Z,99.99
2018-04-01T09:14:43.850Z,99.99
2018-04-01T09:15:53.818Z,99.99
2018-04-01T09:17:03.559Z,99.99
2018-04-01T09:18:13.259Z,99.99
2018-04-01T09:19:23.256Z,99.99
2018-04-01T09:20:33.233Z,99.99
2018-04-01T09:21:43.217Z,99.99
2018-04-01T09:22:52.933Z,99.99
2018-04-01T09:24:02.900Z,99.99
2018-04-01T09:25:12.593Z,99.99
2018-04-01T09:26:22.292Z,99.99
2018-04-01T09:27:32.031Z,99.99
2018-04-01T09:28:41.549Z,99.99
2018-04-01T09:29:51.007Z,99.99
2018-04-01T09:31:01.005Z,99.99
2018-04-01T09:32:10.458Z,99.99
2018-04-01T09:33:20.177Z,99.99
2018-04-01T09:34:30.167Z,99.99
2018-04-01T09:35:39.353Z,99.99
2018-04-01T09:36:48.813Z,99.99
2018-04-01T09:37:58.090Z,99.99
2018-04-01T09:39:07.794Z,99.99
2018-04-01T09:40:17.512Z,99.99
2018-04-01T09:41:26.978Z,99.99
2018-04-01T09:42:36.950Z,99.99
2018-04-01T09:43:46.926Z,99.99
2018-04-01T09:44:56.622Z,99.99
2018-04-01T09:46:06.343Z,99.99
2018-04-01T09:47:15.790Z,99.99
2018-04-01T09:48:25.751Z,99.99
2018-04-01T09:49:35.448Z,99.99
2018-04-01T09:50:45.415Z,99.99
2018-04-01T09:51:55.394Z,99.99
2018-04-01T09:53:04.827Z,99.99
2018-04-01T09:54:14.527Z,99.99
2018-04-01T09:55:23.975Z,99.99
2018-04-01T09:56:33.422Z,99.99
2018-04-01T09:57:43.128Z,99.99
2018-04-01T09:58:53.083Z,99.99
2018-04-01T10:00:02.782Z,99.99
2018-04-01T10:01:12.477Z,99.99
2018-04-01T10:02:22.181Z,99.99
2018-04-01T10:03:32.138Z,99.99
2018-04-01T10:04:41.339Z,99.99
2018-04-01T10:05:50.780Z,99.99
2018-04-01T10:07:00.503Z,99.99
2018-04-01T10:08:09.954Z,99.99
2018-04-01T10:09:19.658Z,99.99
2018-04-01T10:10:29.618Z,99.99
2018-04-01T10:11:39.338Z,99.99
2018-04-01T10:12:49.303Z,99.99
2018-04-01T10:13:59.273Z,99.99
2018-04-01T10:15:09.235Z,99.99
2018-04-01T10:16:18.673Z,99.99
2018-04-01T10:17:28.638Z,99.99
2018-04-01T10:18:38.083Z,99.99
2018-04-01T10:19:47.799Z,99.99
2018-04-01T10:20:57.501Z,99.99
2018-04-01T10:22:07.461Z,99.99
2018-04-01T10:23:17.167Z,99.99
2018-04-01T10:24:27.158Z,99.99
2018-04-01T10:25:36.599Z,99.99
2018-04-01T10:26:46.634Z,99.99
2018-04-01T10:27:56.351Z,99.99
2018-04-01T10:29:06.308Z,99.99
2018-04-01T10:30:16.018Z,99.99
2018-04-01T10:31:25.720Z,99.99
2018-04-01T10:32:35.473Z,99.99
2018-04-01T10:33:45.538Z,99.99
2018-04-01T10:34:55.294Z,99.99
2018-04-01T10:36:04.745Z,99.99
2018-04-01T10:37:14.181Z,99.99
2018-04-01T10:38:23.625Z,99.99
2018-04-01T10:39:33.326Z,99.99
2018-04-01T10:40:43.031Z,99.99
2018-04-01T10:41:52.210Z,99.99
2018-04-01T10:43:01.655Z,99.99
2018-04-01T10:44:11.374Z,99.99
2018-04-01T10:45:21.353Z,99.99
2018-04-01T10:46:30.805Z,99.99
2018-04-01T10:47:40.498Z,99.99
2018-04-01T10:48:50.200Z,99.99
2018-04-01T10:50:00.174Z,99.99
2018-04-01T10:51:10.139Z,99.99
2018-04-01T10:52:19.367Z,99.99
2018-04-01T10:53:29.091Z,99.99
2018-04-01T10:54:39.064Z,99.99
2018-04-01T10:55:48.761Z,99.99
2018-04-01T10:56:58.210Z,99.99
2018-04-01T10:58:07.924Z,99.99
2018-04-01T10:59:17.628Z,99.99
2018-04-01T11:00:27.623Z,99.99
2018-04-01T11:01:37.571Z,99.99
2018-04-01T11:02:47.269Z,99.99
2018-04-01T11:03:56.981Z,99.99
2018-04-01T11:05:06.991Z,99.99
2018-04-01T11:06:16.781Z,99.99
2018-04-01T11:07:26.749Z,99.99
2018-04-01T11:08:36.495Z,99.99
2018-04-01T11:09:46.465Z,99.99
2018-04-01T11:10:56.182Z,99.99
2018-04-01T11:12:06.150Z,99.99
2018-04-01T11:13:16.127Z,99.99
2018-04-01T11:14:26.091Z,99.99
2018-04-01T11:15:35.551Z,99.99
2018-04-01T11:16:45.273Z,99.99
2018-04-01T11:17:54.737Z,99.99
2018-04-01T11:19:04.698Z,99.99
2018-04-01T11:20:14.147Z,99.99
2018-04-01T11:21:23.324Z,99.99
2018-04-01T11:22:33.334Z,99.99
2018-04-01T11:23:43.039Z,99.99
2018-04-01T11:24:52.748Z,99.99
2018-04-01T11:26:02.598Z,99.99
2018-04-01T11:27:12.438Z,99.99
2018-04-01T11:28:22.170Z,99.99
2018-04-01T11:29:32.139Z,99.99
2018-04-01T11:30:41.595Z,99.99
2018-04-01T11:31:51.299Z,99.99
2018-04-01T11:33:00.746Z,99.99
2018-04-01T11:34:10.455Z,99.99
2018-04-01T11:35:20.178Z,99.99
2018-04-01T11:36:29.905Z,99.99
2018-04-01T11:37:39.105Z,99.99
2018-04-01T11:38:48.814Z,99.99
2018-04-01T11:39:58.012Z,99.99
2018-04-01T11:41:07.986Z,99.99
2018-04-01T11:42:17.704Z,99.99
2018-04-01T11:43:27.692Z,99.99
2018-04-01T11:44:37.667Z,99.99
2018-04-01T11:45:47.379Z,99.99
2018-04-01T11:46:57.084Z,99.99
2018-04-01T11:48:06.802Z,99.99
2018-04-01T11:49:16.241Z,99.99
2018-04-01T11:50:26.266Z,99.99
2018-04-01T11:51:36.237Z,99.99
2018-04-01T11:52:46.263Z,99.99
2018-04-01T11:53:56.237Z,99.99
2018-04-01T11:55:06.206Z,99.99
2018-04-01T11:56:16.196Z,99.99
2018-04-01T11:57:25.901Z,99.99
2018-04-01T11:58:35.878Z,99.99
2018-04-01T11:59:45.571Z,99.99
2018-04-01T12:00:55.011Z,99.99
2018-04-01T12:02:04.743Z,99.99
2018-04-01T12:03:14.193Z,99.99
2018-04-01T12:04:23.649Z,99.99
2018-04-01T12:05:33.628Z,99.99
2018-04-01T12:06:43.608Z,99.99
2018-04-01T12:07:52.795Z,99.99
2018-04-01T12:09:02.845Z,99.99
2018-04-01T12:10:12.609Z,99.99
2018-04-01T12:11:22.068Z,99.99
2018-04-01T12:12:31.932Z,99.99
2018-04-01T12:13:41.397Z,99.99
2018-04-01T12:14:50.585Z,99.99
2018-04-01T12:16:00.561Z,99.99
2018-04-01T12:17:10.291Z,99.99
2018-04-01T12:18:20.395Z,99.99
2018-04-01T12:19:30.118Z,99.99
2018-04-01T12:20:39.046Z,99.99
2018-04-01T12:21:48.765Z,99.99
2018-04-01T12:22:58.487Z,99.99
2018-04-01T12:24:08.468Z,99.99
2018-04-01T12:25:18.481Z,99.99
2018-04-01T12:26:28.459Z,99.99
2018-04-01T12:27:38.174Z,99.99
2018-04-01T12:28:47.627Z,99.99
2018-04-01T12:29:57.339Z,99.99
2018-04-01T12:31:07.312Z,99.99
2018-04-01T12:32:17.283Z,99.99
2018-04-01T12:33:27.001Z,99.99
2018-04-01T12:34:36.715Z,99.99
2018-04-01T12:35:46.422Z,99.99
2018-04-01T12:36:55.870Z,99.99
2018-04-01T12:38:05.852Z,99.99
2018-04-01T12:39:15.562Z,99.99
2018-04-01T12:40:25.265Z,99.99
2018-04-01T12:41:35.229Z,99.99
2018-04-01T12:42:44.703Z,99.99
2018-04-01T12:43:54.669Z,99.99
2018-04-01T12:45:04.394Z,99.99
2018-04-01T12:46:14.103Z,99.99
2018-04-01T12:47:24.075Z,99.99
2018-04-01T12:48:33.780Z,99.99
2018-04-01T12:49:43.500Z,99.99
2018-04-01T12:50:53.224Z,99.99
2018-04-01T12:52:03.201Z,99.99
2018-04-01T12:53:12.928Z,99.99
2018-04-01T12:54:22.917Z,99.99
2018-04-01T12:55:32.895Z,99.99
2018-04-01T12:56:42.859Z,99.99
2018-04-01T12:57:52.851Z,99.99
2018-04-01T12:59:02.571Z,99.99
2018-04-01T13:00:12.277Z,99.99
2018-04-01T13:01:22.241Z,99.99
2018-04-01T13:02:32.207Z,99.99
2018-04-01T13:03:42.176Z,99.99
2018-04-01T13:04:51.872Z,99.99
2018-04-01T13:06:01.581Z,99.99
2018-04-01T13:07:11.287Z,99.99
2018-04-01T13:08:21.295Z,99.99
2018-04-01T13:09:31.270Z,99.99
2018-04-01T13:10:40.985Z,99.99
2018-04-01T13:11:50.949Z,99.99
2018-04-01T13:13:00.923Z,99.99
2018-04-01T13:14:10.381Z,99.99
2018-04-01T13:15:20.094Z,99.99
2018-04-01T13:16:30.066Z,99.99
2018-04-01T13:17:40.035Z,99.99
2018-04-01T13:18:50.064Z,99.99
2018-04-01T13:19:59.775Z,99.99
2018-04-01T13:21:09.233Z,99.99
2018-04-01T13:22:19.210Z,99.99
2018-04-01T13:23:29.229Z,99.99
2018-04-01T13:24:39.202Z,99.99
2018-04-01T13:25:48.913Z,99.99
2018-04-01T13:26:58.613Z,99.99
2018-04-01T13:28:08.328Z,99.99
2018-04-01T13:29:18.293Z,99.99
2018-04-01T13:30:27.754Z,99.99
2018-04-01T13:31:36.950Z,99.99
2018-04-01T13:32:46.400Z,99.99
2018-04-01T13:33:56.122Z,99.99
2018-04-01T13:35:05.856Z,99.99
2018-04-01T13:36:15.720Z,99.99
2018-04-01T13:37:25.416Z,99.99
2018-04-01T13:38:35.129Z,99.99
2018-04-01T13:39:44.901Z,99.99
2018-04-01T13:40:54.593Z,99.99
2018-04-01T13:42:04.555Z,99.99
2018-04-01T13:43:14.507Z,99.99
2018-04-01T13:44:24.469Z,99.99
2018-04-01T13:45:34.476Z,99.99
2018-04-01T13:46:44.453Z,99.99
2018-04-01T13:47:54.157Z,99.99
2018-04-01T13:49:04.136Z,99.99
2018-04-01T13:50:13.840Z,99.99
2018-04-01T13:51:23.840Z,99.99
2018-04-01T13:52:33.798Z,99.99
2018-04-01T13:53:43.790Z,99.99
2018-04-01T13:54:53.249Z,99.99
2018-04-01T13:56:03.215Z,99.99
2018-04-01T13:57:12.921Z,99.99
2018-04-01T13:58:22.636Z,99.99
2018-04-01T13:59:32.351Z,99.99
2018-04-01T14:00:41.528Z,99.99
2018-04-01T14:01:51.228Z,99.99
2018-04-01T14:03:00.925Z,99.99
2018-04-01T14:04:10.686Z,99.99
2018-04-01T14:05:20.671Z,99.99
2018-04-01T14:06:30.121Z,99.99
2018-04-01T14:07:40.312Z,99.99
2018-04-01T14:08:49.759Z,99.99
2018-04-01T14:09:59.743Z,99.99
2018-04-01T14:11:09.188Z,99.99
2018-04-01T14:12:18.902Z,99.99
2018-04-01T14:13:28.600Z,99.99
2018-04-01T14:14:38.307Z,99.99
2018-04-01T14:15:48.285Z,99.99
2018-04-01T14:16:57.989Z,99.99
2018-04-01T14:18:07.698Z,99.99
2018-04-01T14:19:17.657Z,99.99
2018-04-01T14:20:27.623Z,99.99
2018-04-01T14:21:37.611Z,99.99
2018-04-01T14:22:47.579Z,99.99
2018-04-01T14:23:57.550Z,99.99
2018-04-01T14:25:07.270Z,99.99
2018-04-01T14:26:17.234Z,99.99
2018-04-01T14:27:26.944Z,99.99
2018-04-01T14:28:36.927Z,99.99
2018-04-01T14:29:46.624Z,99.99
2018-04-01T14:30:56.580Z,99.99
2018-04-01T14:32:06.287Z,99.99
2018-04-01T14:33:16.024Z,99.99
2018-04-01T14:34:25.787Z,99.99
2018-04-01T14:35:35.486Z,99.99
2018-04-01T14:36:45.458Z,99.99
2018-04-01T14:37:55.434Z,99.99
2018-04-01T14:39:04.872Z,99.99
2018-04-01T14:40:14.571Z,99.99
2018-04-01T14:41:24.566Z,99.99
2018-04-01T14:42:34.538Z,99.99
2018-04-01T14:43:44.250Z,99.99
2018-04-01T14:44:54.212Z,99.99
2018-04-01T14:46:03.661Z,99.99
2018-04-01T14:47:13.378Z,99.99
2018-04-01T14:48:22.330Z,99.99
2018-04-01T14:49:32.319Z,99.99
2018-04-01T14:50:42.308Z,99.99
2018-04-01T14:51:52.270Z,99.99
2018-04-01T14:53:02.229Z,99.99
2018-04-01T14:54:11.684Z,99.99
2018-04-01T14:55:21.421Z,99.99
2018-04-01T14:56:31.187Z,99.99
2018-04-01T14:57:41.149Z,99.99